aviador You're here:

KBDR Decoded Metar

STRATFORD in CT, USA
Report Time2018-04-21 08:52:00
UTC Time2018-04-21 09:38:19
Flight Rules vfr VFR
Wind320° at 04 kt
W.Decomp.*RWY 29: 2.9 kt HW 2.7 kt RCW
RWY 06: 0.2 kt HW 4 kt LCW
W.Rank320° ranks 6
Current wind is below 320° avg. (8.4)
Visibility9999 m
Phenomena:N/A
Clouds:N/A
Expected CloudBase > 2,800 ft AGL from Temp-Dew spread
CeilingNone
Temp03°C (ISA -12)
Dew Point-4°C (60% RH)
AAT-0.9°C
QNH1028 hPa
Density Alt-1,873 ft
Elevation23 ft
Report Wrong Elevation
Raw Report
KBDR 210852Z AUTO 32004KT 10SM CLR 03/M04 A3036 RMK AO2 SLP280
T00281044 53005=

Extra information for KBDR:More info

Metar Taf Metar & Taf Last 4 Metars F.Rules Stats Wind Profile Meteogram Temp Stats Airport Information Weather charts Add Link Nearby VenuesMetar ALERT Operation Metar Decoded Social comments

AIRNAV info for KBDR